sensor_id;sensor_type;location;lat;lon;timestamp;temperature;humidity
22678;DHT22;26259;50.214;18.620;2023-04-16T00:00:49;4.70;99.90
22678;DHT22;26259;50.214;18.620;2023-04-16T00:03:14;4.70;99.90
22678;DHT22;26259;50.214;18.620;2023-04-16T00:05:40;4.70;99.90
22678;DHT22;26259;50.214;18.620;2023-04-16T00:08:06;4.70;99.90
22678;DHT22;26259;50.214;18.620;2023-04-16T00:10:33;4.70;99.90
22678;DHT22;26259;50.214;18.620;2023-04-16T00:12:59;4.70;99.90
22678;DHT22;26259;50.214;18.620;2023-04-16T00:15:25;4.70;99.90
22678;DHT22;26259;50.214;18.620;2023-04-16T00:17:50;4.70;99.90
22678;DHT22;26259;50.214;18.620;2023-04-16T00:20:16;4.60;99.90
22678;DHT22;26259;50.214;18.620;2023-04-16T00:22:42;4.60;99.90
22678;DHT22;26259;50.214;18.620;2023-04-16T00:25:07;4.70;99.90
22678;DHT22;26259;50.214;18.620;2023-04-16T00:27:33;4.70;99.90
22678;DHT22;26259;50.214;18.620;2023-04-16T00:29:58;4.80;99.90
22678;DHT22;26259;50.214;18.620;2023-04-16T00:32:24;4.70;99.90
22678;DHT22;26259;50.214;18.620;2023-04-16T00:34:50;4.60;99.90
22678;DHT22;26259;50.214;18.620;2023-04-16T00:37:15;4.70;99.90
22678;DHT22;26259;50.214;18.620;2023-04-16T00:39:41;4.60;99.90
22678;DHT22;26259;50.214;18.620;2023-04-16T00:42:06;4.60;99.90
22678;DHT22;26259;50.214;18.620;2023-04-16T00:44:32;4.50;99.90
22678;DHT22;26259;50.214;18.620;2023-04-16T00:47:01;4.50;99.90
22678;DHT22;26259;50.214;18.620;2023-04-16T00:49:27;4.50;99.90
22678;DHT22;26259;50.214;18.620;2023-04-16T00:51:54;4.50;99.90
22678;DHT22;26259;50.214;18.620;2023-04-16T00:54:20;4.40;99.90
22678;DHT22;26259;50.214;18.620;2023-04-16T00:56:46;4.40;99.90
22678;DHT22;26259;50.214;18.620;2023-04-16T00:59:11;4.50;99.90
22678;DHT22;26259;50.214;18.620;2023-04-16T01:01:37;4.50;99.90
22678;DHT22;26259;50.214;18.620;2023-04-16T01:04:02;4.50;99.90
22678;DHT22;26259;50.214;18.620;2023-04-16T01:06:28;4.50;99.90
22678;DHT22;26259;50.214;18.620;2023-04-16T01:08:54;4.50;99.90
22678;DHT22;26259;50.214;18.620;2023-04-16T01:11:19;4.50;99.90
22678;DHT22;26259;50.214;18.620;2023-04-16T01:13:45;4.40;99.90
22678;DHT22;26259;50.214;18.620;2023-04-16T01:16:11;4.40;99.90
22678;DHT22;26259;50.214;18.620;2023-04-16T01:18:38;4.30;99.90
22678;DHT22;26259;50.214;18.620;2023-04-16T01:21:04;4.30;99.90
22678;DHT22;26259;50.214;18.620;2023-04-16T01:23:30;4.40;99.90
22678;DHT22;26259;50.214;18.620;2023-04-16T01:25:56;4.50;99.90
22678;DHT22;26259;50.214;18.620;2023-04-16T01:28:21;4.60;99.90
22678;DHT22;26259;50.214;18.620;2023-04-16T01:30:47;4.80;99.90
22678;DHT22;26259;50.214;18.620;2023-04-16T01:33:13;4.90;99.90
22678;DHT22;26259;50.214;18.620;2023-04-16T01:35:40;5.00;99.90
22678;DHT22;26259;50.214;18.620;2023-04-16T01:38:07;5.10;99.90
22678;DHT22;26259;50.214;18.620;2023-04-16T01:40:34;5.20;99.90
22678;DHT22;26259;50.214;18.620;2023-04-16T01:42:59;5.40;99.90
22678;DHT22;26259;50.214;18.620;2023-04-16T01:45:25;5.50;99.90
22678;DHT22;26259;50.214;18.620;2023-04-16T01:47:51;5.60;99.90
22678;DHT22;26259;50.214;18.620;2023-04-16T01:50:18;5.70;99.90
22678;DHT22;26259;50.214;18.620;2023-04-16T01:52:44;5.70;99.90
22678;DHT22;26259;50.214;18.620;2023-04-16T01:55:10;5.80;99.90
22678;DHT22;26259;50.214;18.620;2023-04-16T01:57:36;5.80;99.90
22678;DHT22;26259;50.214;18.620;2023-04-16T02:00:02;5.90;99.90
22678;DHT22;26259;50.214;18.620;2023-04-16T02:02:28;5.90;99.90
22678;DHT22;26259;50.214;18.620;2023-04-16T02:04:54;5.90;99.90
22678;DHT22;26259;50.214;18.620;2023-04-16T02:07:21;5.80;99.90
22678;DHT22;26259;50.214;18.620;2023-04-16T02:09:46;5.90;99.90
22678;DHT22;26259;50.214;18.620;2023-04-16T02:12:12;5.90;99.90
22678;DHT22;26259;50.214;18.620;2023-04-16T02:14:37;5.90;99.90
22678;DHT22;26259;50.214;18.620;2023-04-16T02:17:03;5.90;99.90
22678;DHT22;26259;50.214;18.620;2023-04-16T02:19:29;5.90;99.90
22678;DHT22;26259;50.214;18.620;2023-04-16T02:21:55;5.90;99.90
22678;DHT22;26259;50.214;18.620;2023-04-16T02:24:20;5.90;99.90
22678;DHT22;26259;50.214;18.620;2023-04-16T02:26:46;5.90;99.90
22678;DHT22;26259;50.214;18.620;2023-04-16T02:29:12;5.80;99.90
22678;DHT22;26259;50.214;18.620;2023-04-16T02:31:38;5.80;99.90
22678;DHT22;26259;50.214;18.620;2023-04-16T02:34:03;5.80;99.90
22678;DHT22;26259;50.214;18.620;2023-04-16T02:36:30;5.80;99.90
22678;DHT22;26259;50.214;18.620;2023-04-16T02:38:56;5.80;99.90
22678;DHT22;26259;50.214;18.620;2023-04-16T02:41:22;5.80;99.90
22678;DHT22;26259;50.214;18.620;2023-04-16T02:43:47;5.80;99.90
22678;DHT22;26259;50.214;18.620;2023-04-16T02:46:13;5.80;99.90
22678;DHT22;26259;50.214;18.620;2023-04-16T02:48:39;5.90;99.90
22678;DHT22;26259;50.214;18.620;2023-04-16T02:51:04;5.90;99.90
22678;DHT22;26259;50.214;18.620;2023-04-16T02:53:30;5.90;99.90
22678;DHT22;26259;50.214;18.620;2023-04-16T02:55:56;5.90;99.90
22678;DHT22;26259;50.214;18.620;2023-04-16T02:58:23;6.00;99.90
22678;DHT22;26259;50.214;18.620;2023-04-16T03:00:50;5.90;99.90
22678;DHT22;26259;50.214;18.620;2023-04-16T03:03:16;5.90;99.90
22678;DHT22;26259;50.214;18.620;2023-04-16T03:05:42;6.00;99.90
22678;DHT22;26259;50.214;18.620;2023-04-16T03:08:07;5.90;99.90
22678;DHT22;26259;50.214;18.620;2023-04-16T03:10:33;5.90;99.90
22678;DHT22;26259;50.214;18.620;2023-04-16T03:13:00;5.90;99.90
22678;DHT22;26259;50.214;18.620;2023-04-16T03:15:26;5.90;99.90
22678;DHT22;26259;50.214;18.620;2023-04-16T03:17:52;5.90;99.90
22678;DHT22;26259;50.214;18.620;2023-04-16T03:20:18;5.90;99.90
22678;DHT22;26259;50.214;18.620;2023-04-16T03:22:44;5.90;99.90
22678;DHT22;26259;50.214;18.620;2023-04-16T03:25:10;5.80;99.90
22678;DHT22;26259;50.214;18.620;2023-04-16T03:27:36;5.80;99.90
22678;DHT22;26259;50.214;18.620;2023-04-16T03:30:01;5.70;99.90
22678;DHT22;26259;50.214;18.620;2023-04-16T03:32:27;5.70;99.90
22678;DHT22;26259;50.214;18.620;2023-04-16T03:34:53;5.70;99.90
22678;DHT22;26259;50.214;18.620;2023-04-16T03:37:18;5.70;99.90
22678;DHT22;26259;50.214;18.620;2023-04-16T03:39:44;5.60;99.90
22678;DHT22;26259;50.214;18.620;2023-04-16T03:42:10;5.50;99.90
22678;DHT22;26259;50.214;18.620;2023-04-16T03:44:35;5.40;99.90
22678;DHT22;26259;50.214;18.620;2023-04-16T03:47:01;5.40;99.90
22678;DHT22;26259;50.214;18.620;2023-04-16T03:49:26;5.40;99.90
22678;DHT22;26259;50.214;18.620;2023-04-16T03:51:52;5.40;99.90
22678;DHT22;26259;50.214;18.620;2023-04-16T03:54:17;5.40;99.90
22678;DHT22;26259;50.214;18.620;2023-04-16T03:56:43;5.40;99.90
22678;DHT22;26259;50.214;18.620;2023-04-16T03:59:09;5.40;99.90
22678;DHT22;26259;50.214;18.620;2023-04-16T04:01:34;5.50;99.90
22678;DHT22;26259;50.214;18.620;2023-04-16T04:04:00;5.50;99.90
22678;DHT22;26259;50.214;18.620;2023-04-16T04:06:26;5.60;99.90
22678;DHT22;26259;50.214;18.620;2023-04-16T04:08:52;5.60;99.90
22678;DHT22;26259;50.214;18.620;2023-04-16T04:11:18;5.60;99.90
22678;DHT22;26259;50.214;18.620;2023-04-16T04:13:43;5.60;99.90
22678;DHT22;26259;50.214;18.620;2023-04-16T04:16:09;5.70;99.90
22678;DHT22;26259;50.214;18.620;2023-04-16T04:18:35;5.60;99.90
22678;DHT22;26259;50.214;18.620;2023-04-16T04:21:08;5.60;99.90
22678;DHT22;26259;50.214;18.620;2023-04-16T04:23:34;5.60;99.90
22678;DHT22;26259;50.214;18.620;2023-04-16T04:25:59;5.60;99.90
22678;DHT22;26259;50.214;18.620;2023-04-16T04:28:28;5.60;99.90
22678;DHT22;26259;50.214;18.620;2023-04-16T04:30:54;5.60;99.90
22678;DHT22;26259;50.214;18.620;2023-04-16T04:33:19;5.70;99.90
22678;DHT22;26259;50.214;18.620;2023-04-16T04:35:45;5.70;99.90
22678;DHT22;26259;50.214;18.620;2023-04-16T04:38:10;5.80;99.90
22678;DHT22;26259;50.214;18.620;2023-04-16T04:40:36;5.80;99.90
22678;DHT22;26259;50.214;18.620;2023-04-16T04:43:01;5.90;99.90
22678;DHT22;26259;50.214;18.620;2023-04-16T04:45:27;6.00;99.90
22678;DHT22;26259;50.214;18.620;2023-04-16T04:47:52;6.10;99.90
22678;DHT22;26259;50.214;18.620;2023-04-16T04:50:18;6.20;99.90
22678;DHT22;26259;50.214;18.620;2023-04-16T04:52:44;6.30;99.90
22678;DHT22;26259;50.214;18.620;2023-04-16T04:55:09;6.30;99.90
22678;DHT22;26259;50.214;18.620;2023-04-16T04:57:35;6.40;99.90
22678;DHT22;26259;50.214;18.620;2023-04-16T05:00:01;6.50;99.90
22678;DHT22;26259;50.214;18.620;2023-04-16T05:02:28;6.60;99.90
22678;DHT22;26259;50.214;18.620;2023-04-16T05:04:54;6.60;99.90
22678;DHT22;26259;50.214;18.620;2023-04-16T05:07:20;6.70;99.90
22678;DHT22;26259;50.214;18.620;2023-04-16T05:09:45;6.80;99.90
22678;DHT22;26259;50.214;18.620;2023-04-16T05:12:11;6.90;99.90
22678;DHT22;26259;50.214;18.620;2023-04-16T05:14:36;7.00;99.90
22678;DHT22;26259;50.214;18.620;2023-04-16T05:17:02;7.10;99.90
22678;DHT22;26259;50.214;18.620;2023-04-16T05:19:27;7.30;99.90
22678;DHT22;26259;50.214;18.620;2023-04-16T05:21:53;7.40;99.90
22678;DHT22;26259;50.214;18.620;2023-04-16T05:24:19;7.30;99.90
22678;DHT22;26259;50.214;18.620;2023-04-16T05:26:44;7.30;99.90
22678;DHT22;26259;50.214;18.620;2023-04-16T05:29:10;7.40;99.90
22678;DHT22;26259;50.214;18.620;2023-04-16T05:31:35;7.60;99.90
22678;DHT22;26259;50.214;18.620;2023-04-16T05:34:01;7.60;99.90
22678;DHT22;26259;50.214;18.620;2023-04-16T05:36:27;7.80;99.90
22678;DHT22;26259;50.214;18.620;2023-04-16T05:38:52;7.90;99.90
22678;DHT22;26259;50.214;18.620;2023-04-16T05:41:18;8.00;99.90
22678;DHT22;26259;50.214;18.620;2023-04-16T05:43:43;8.20;99.90
22678;DHT22;26259;50.214;18.620;2023-04-16T05:46:09;8.60;99.90
22678;DHT22;26259;50.214;18.620;2023-04-16T05:48:34;9.00;99.90
22678;DHT22;26259;50.214;18.620;2023-04-16T05:51:00;9.40;99.90
22678;DHT22;26259;50.214;18.620;2023-04-16T05:53:26;9.60;99.90
22678;DHT22;26259;50.214;18.620;2023-04-16T05:55:52;9.80;99.90
22678;DHT22;26259;50.214;18.620;2023-04-16T05:58:17;9.80;99.90
22678;DHT22;26259;50.214;18.620;2023-04-16T06:00:43;9.80;99.90
22678;DHT22;26259;50.214;18.620;2023-04-16T06:03:09;9.90;99.90
22678;DHT22;26259;50.214;18.620;2023-04-16T06:05:35;10.00;99.90
22678;DHT22;26259;50.214;18.620;2023-04-16T06:08:00;10.20;99.90
22678;DHT22;26259;50.214;18.620;2023-04-16T06:10:26;10.40;99.90
22678;DHT22;26259;50.214;18.620;2023-04-16T06:12:52;10.60;99.90
22678;DHT22;26259;50.214;18.620;2023-04-16T06:15:18;10.70;99.90
22678;DHT22;26259;50.214;18.620;2023-04-16T06:17:43;10.80;99.90
22678;DHT22;26259;50.214;18.620;2023-04-16T06:20:09;10.90;99.90
22678;DHT22;26259;50.214;18.620;2023-04-16T06:22:35;11.00;99.90
22678;DHT22;26259;50.214;18.620;2023-04-16T06:25:01;10.90;99.90
22678;DHT22;26259;50.214;18.620;2023-04-16T06:27:26;11.10;99.90
22678;DHT22;26259;50.214;18.620;2023-04-16T06:29:52;11.20;99.90
22678;DHT22;26259;50.214;18.620;2023-04-16T06:32:18;11.30;99.90
22678;DHT22;26259;50.214;18.620;2023-04-16T06:34:44;11.40;99.90
22678;DHT22;26259;50.214;18.620;2023-04-16T06:37:10;11.50;99.90
22678;DHT22;26259;50.214;18.620;2023-04-16T06:39:35;11.60;99.90
22678;DHT22;26259;50.214;18.620;2023-04-16T06:42:01;11.60;99.90
22678;DHT22;26259;50.214;18.620;2023-04-16T06:44:26;11.70;99.90
22678;DHT22;26259;50.214;18.620;2023-04-16T06:46:52;11.70;99.90
22678;DHT22;26259;50.214;18.620;2023-04-16T06:49:17;11.70;99.90
22678;DHT22;26259;50.214;18.620;2023-04-16T06:51:43;11.60;99.90
22678;DHT22;26259;50.214;18.620;2023-04-16T06:54:08;11.50;99.90
22678;DHT22;26259;50.214;18.620;2023-04-16T06:56:34;11.50;99.90
22678;DHT22;26259;50.214;18.620;2023-04-16T06:59:02;11.50;99.90
22678;DHT22;26259;50.214;18.620;2023-04-16T07:01:27;11.30;99.90
22678;DHT22;26259;50.214;18.620;2023-04-16T07:03:55;11.30;99.90
22678;DHT22;26259;50.214;18.620;2023-04-16T07:06:21;11.20;99.90
22678;DHT22;26259;50.214;18.620;2023-04-16T07:08:47;11.20;99.90
22678;DHT22;26259;50.214;18.620;2023-04-16T07:11:12;11.30;99.90
22678;DHT22;26259;50.214;18.620;2023-04-16T07:13:38;11.20;99.90
22678;DHT22;26259;50.214;18.620;2023-04-16T07:16:03;11.20;99.90
22678;DHT22;26259;50.214;18.620;2023-04-16T07:18:30;11.30;99.90
22678;DHT22;26259;50.214;18.620;2023-04-16T07:20:56;11.40;99.90
22678;DHT22;26259;50.214;18.620;2023-04-16T07:23:21;11.60;99.90
22678;DHT22;26259;50.214;18.620;2023-04-16T07:25:47;11.80;99.90
22678;DHT22;26259;50.214;18.620;2023-04-16T07:28:13;11.80;99.90
22678;DHT22;26259;50.214;18.620;2023-04-16T07:30:40;12.00;99.90
22678;DHT22;26259;50.214;18.620;2023-04-16T07:33:06;12.10;99.90
22678;DHT22;26259;50.214;18.620;2023-04-16T07:35:32;12.40;99.90
22678;DHT22;26259;50.214;18.620;2023-04-16T07:37:57;12.40;99.90
22678;DHT22;26259;50.214;18.620;2023-04-16T07:40:23;12.30;99.90
22678;DHT22;26259;50.214;18.620;2023-04-16T07:42:49;12.30;99.90
22678;DHT22;26259;50.214;18.620;2023-04-16T07:45:15;12.40;99.90
22678;DHT22;26259;50.214;18.620;2023-04-16T07:47:41;12.60;99.90
22678;DHT22;26259;50.214;18.620;2023-04-16T07:50:07;12.60;99.90
22678;DHT22;26259;50.214;18.620;2023-04-16T07:52:32;12.40;99.90
22678;DHT22;26259;50.214;18.620;2023-04-16T07:54:58;12.30;99.90
22678;DHT22;26259;50.214;18.620;2023-04-16T07:57:24;12.30;99.90
22678;DHT22;26259;50.214;18.620;2023-04-16T07:59:49;12.50;99.90
22678;DHT22;26259;50.214;18.620;2023-04-16T08:02:15;12.60;99.90
22678;DHT22;26259;50.214;18.620;2023-04-16T08:04:41;12.80;99.90
22678;DHT22;26259;50.214;18.620;2023-04-16T08:07:08;12.90;99.90
22678;DHT22;26259;50.214;18.620;2023-04-16T08:09:33;13.00;99.90
22678;DHT22;26259;50.214;18.620;2023-04-16T08:12:02;13.20;99.90
22678;DHT22;26259;50.214;18.620;2023-04-16T08:14:28;13.30;99.90
22678;DHT22;26259;50.214;18.620;2023-04-16T08:16:54;13.40;99.90
22678;DHT22;26259;50.214;18.620;2023-04-16T08:19:19;13.60;99.90
22678;DHT22;26259;50.214;18.620;2023-04-16T08:21:45;13.50;99.90
22678;DHT22;26259;50.214;18.620;2023-04-16T08:24:11;13.70;99.90
22678;DHT22;26259;50.214;18.620;2023-04-16T08:26:36;13.80;99.90
22678;DHT22;26259;50.214;18.620;2023-04-16T08:29:02;13.80;99.90
22678;DHT22;26259;50.214;18.620;2023-04-16T08:31:28;13.70;99.90
22678;DHT22;26259;50.214;18.620;2023-04-16T08:33:53;13.50;99.90
22678;DHT22;26259;50.214;18.620;2023-04-16T08:36:19;13.30;99.90
22678;DHT22;26259;50.214;18.620;2023-04-16T08:38:45;13.30;99.90
22678;DHT22;26259;50.214;18.620;2023-04-16T08:41:11;13.40;99.90
22678;DHT22;26259;50.214;18.620;2023-04-16T08:43:39;13.60;99.90
22678;DHT22;26259;50.214;18.620;2023-04-16T08:46:06;14.10;99.90
22678;DHT22;26259;50.214;18.620;2023-04-16T08:48:34;14.70;99.90
22678;DHT22;26259;50.214;18.620;2023-04-16T08:51:00;14.90;99.90
22678;DHT22;26259;50.214;18.620;2023-04-16T08:53:35;14.80;99.90
22678;DHT22;26259;50.214;18.620;2023-04-16T08:56:04;14.50;99.90
22678;DHT22;26259;50.214;18.620;2023-04-16T08:58:32;14.10;99.90
22678;DHT22;26259;50.214;18.620;2023-04-16T09:01:02;13.90;99.90
22678;DHT22;26259;50.214;18.620;2023-04-16T09:03:30;13.70;99.90
22678;DHT22;26259;50.214;18.620;2023-04-16T09:05:57;13.70;99.90
22678;DHT22;26259;50.214;18.620;2023-04-16T09:08:24;13.70;99.90
22678;DHT22;26259;50.214;18.620;2023-04-16T09:10:50;13.80;99.90
22678;DHT22;26259;50.214;18.620;2023-04-16T09:13:16;14.10;99.90
22678;DHT22;26259;50.214;18.620;2023-04-16T09:15:45;14.30;99.90
22678;DHT22;26259;50.214;18.620;2023-04-16T09:18:10;14.60;99.90
22678;DHT22;26259;50.214;18.620;2023-04-16T09:20:37;14.60;99.90
22678;DHT22;26259;50.214;18.620;2023-04-16T09:23:03;14.70;99.90
22678;DHT22;26259;50.214;18.620;2023-04-16T09:25:34;14.50;99.90
22678;DHT22;26259;50.214;18.620;2023-04-16T09:28:01;14.30;99.90
22678;DHT22;26259;50.214;18.620;2023-04-16T09:30:27;14.30;99.90
22678;DHT22;26259;50.214;18.620;2023-04-16T09:33:12;14.30;99.90
22678;DHT22;26259;50.214;18.620;2023-04-16T09:35:46;14.40;99.90
22678;DHT22;26259;50.214;18.620;2023-04-16T09:38:12;14.60;99.90
22678;DHT22;26259;50.214;18.620;2023-04-16T09:40:37;14.90;99.90
22678;DHT22;26259;50.214;18.620;2023-04-16T09:43:16;15.00;99.90
22678;DHT22;26259;50.214;18.620;2023-04-16T09:45:52;15.10;99.90
22678;DHT22;26259;50.214;18.620;2023-04-16T09:48:31;15.30;99.90
22678;DHT22;26259;50.214;18.620;2023-04-16T09:50:58;15.20;99.90
22678;DHT22;26259;50.214;18.620;2023-04-16T09:53:31;15.00;99.90
22678;DHT22;26259;50.214;18.620;2023-04-16T09:55:58;14.80;99.90
22678;DHT22;26259;50.214;18.620;2023-04-16T09:58:24;14.70;99.90
22678;DHT22;26259;50.214;18.620;2023-04-16T10:01:08;14.60;99.90
22678;DHT22;26259;50.214;18.620;2023-04-16T10:03:36;14.70;99.90
22678;DHT22;26259;50.214;18.620;2023-04-16T10:06:14;14.80;99.90
22678;DHT22;26259;50.214;18.620;2023-04-16T10:11:10;14.90;99.90
22678;DHT22;26259;50.214;18.620;2023-04-16T10:13:36;15.00;99.90
22678;DHT22;26259;50.214;18.620;2023-04-16T10:16:02;15.10;99.90
22678;DHT22;26259;50.214;18.620;2023-04-16T10:18:28;15.30;99.90
22678;DHT22;26259;50.214;18.620;2023-04-16T10:20:54;15.70;99.90
22678;DHT22;26259;50.214;18.620;2023-04-16T10:23:20;15.90;99.90
22678;DHT22;26259;50.214;18.620;2023-04-16T10:25:50;15.80;99.90
22678;DHT22;26259;50.214;18.620;2023-04-16T10:28:16;15.80;99.90
22678;DHT22;26259;50.214;18.620;2023-04-16T10:30:46;15.90;99.90
22678;DHT22;26259;50.214;18.620;2023-04-16T10:33:19;15.90;99.90
22678;DHT22;26259;50.214;18.620;2023-04-16T10:35:45;15.60;99.90
22678;DHT22;26259;50.214;18.620;2023-04-16T10:38:24;15.60;99.90
22678;DHT22;26259;50.214;18.620;2023-04-16T10:41:03;15.70;99.90
22678;DHT22;26259;50.214;18.620;2023-04-16T10:43:31;15.80;99.90
22678;DHT22;26259;50.214;18.620;2023-04-16T10:48:45;15.70;99.90
22678;DHT22;26259;50.214;18.620;2023-04-16T10:51:33;15.40;99.90
22678;DHT22;26259;50.214;18.620;2023-04-16T10:56:33;15.30;99.90
22678;DHT22;26259;50.214;18.620;2023-04-16T10:58:59;15.20;99.90
22678;DHT22;26259;50.214;18.620;2023-04-16T11:01:30;15.00;99.90
22678;DHT22;26259;50.214;18.620;2023-04-16T11:03:58;14.90;99.90
22678;DHT22;26259;50.214;18.620;2023-04-16T11:06:25;14.80;99.90
22678;DHT22;26259;50.214;18.620;2023-04-16T11:08:52;14.60;99.90
22678;DHT22;26259;50.214;18.620;2023-04-16T11:11:18;14.60;99.90
22678;DHT22;26259;50.214;18.620;2023-04-16T11:13:44;14.70;99.90
22678;DHT22;26259;50.214;18.620;2023-04-16T11:16:14;14.80;99.90
22678;DHT22;26259;50.214;18.620;2023-04-16T11:18:40;15.00;99.90
22678;DHT22;26259;50.214;18.620;2023-04-16T11:21:09;15.30;99.90
22678;DHT22;26259;50.214;18.620;2023-04-16T11:23:51;15.60;99.90
22678;DHT22;26259;50.214;18.620;2023-04-16T11:26:23;15.80;99.90
22678;DHT22;26259;50.214;18.620;2023-04-16T11:28:49;15.60;99.90
22678;DHT22;26259;50.214;18.620;2023-04-16T11:31:14;15.40;99.90
22678;DHT22;26259;50.214;18.620;2023-04-16T11:33:41;15.40;99.90
22678;DHT22;26259;50.214;18.620;2023-04-16T11:36:07;15.50;99.90
22678;DHT22;26259;50.214;18.620;2023-04-16T11:38:37;15.80;99.90
22678;DHT22;26259;50.214;18.620;2023-04-16T11:41:02;15.90;99.90
22678;DHT22;26259;50.214;18.620;2023-04-16T11:43:28;15.80;99.90
22678;DHT22;26259;50.214;18.620;2023-04-16T11:46:02;15.60;99.90
22678;DHT22;26259;50.214;18.620;2023-04-16T11:48:48;15.70;99.90
22678;DHT22;26259;50.214;18.620;2023-04-16T11:51:14;15.90;99.90
22678;DHT22;26259;50.214;18.620;2023-04-16T11:53:52;16.10;99.20
22678;DHT22;26259;50.214;18.620;2023-04-16T11:56:29;16.20;99.90
22678;DHT22;26259;50.214;18.620;2023-04-16T11:59:15;16.30;99.90
22678;DHT22;26259;50.214;18.620;2023-04-16T12:01:46;16.50;99.90
22678;DHT22;26259;50.214;18.620;2023-04-16T12:04:13;16.60;99.90
22678;DHT22;26259;50.214;18.620;2023-04-16T12:06:40;16.50;99.90
22678;DHT22;26259;50.214;18.620;2023-04-16T12:09:24;16.60;99.90
22678;DHT22;26259;50.214;18.620;2023-04-16T12:11:51;16.90;99.90
22678;DHT22;26259;50.214;18.620;2023-04-16T12:14:17;17.00;99.90
22678;DHT22;26259;50.214;18.620;2023-04-16T12:16:43;17.10;99.70
22678;DHT22;26259;50.214;18.620;2023-04-16T12:19:10;17.10;99.90
22678;DHT22;26259;50.214;18.620;2023-04-16T12:21:44;16.90;99.90
22678;DHT22;26259;50.214;18.620;2023-04-16T12:24:12;16.90;99.90
22678;DHT22;26259;50.214;18.620;2023-04-16T12:26:43;16.80;99.90
22678;DHT22;26259;50.214;18.620;2023-04-16T12:29:18;16.70;99.90
22678;DHT22;26259;50.214;18.620;2023-04-16T12:31:45;16.70;99.90
22678;DHT22;26259;50.214;18.620;2023-04-16T12:34:11;16.70;99.90
22678;DHT22;26259;50.214;18.620;2023-04-16T12:36:37;16.80;99.90
22678;DHT22;26259;50.214;18.620;2023-04-16T12:39:02;16.80;99.90
22678;DHT22;26259;50.214;18.620;2023-04-16T12:41:28;16.90;99.90
22678;DHT22;26259;50.214;18.620;2023-04-16T12:44:15;16.80;99.90
22678;DHT22;26259;50.214;18.620;2023-04-16T12:46:42;16.90;99.90
22678;DHT22;26259;50.214;18.620;2023-04-16T12:49:09;17.00;99.90
22678;DHT22;26259;50.214;18.620;2023-04-16T12:51:36;17.10;99.90
22678;DHT22;26259;50.214;18.620;2023-04-16T12:54:03;17.20;99.90
22678;DHT22;26259;50.214;18.620;2023-04-16T12:56:29;17.10;96.80
22678;DHT22;26259;50.214;18.620;2023-04-16T12:58:55;17.00;99.90
22678;DHT22;26259;50.214;18.620;2023-04-16T13:01:21;17.00;98.40
22678;DHT22;26259;50.214;18.620;2023-04-16T13:03:48;17.00;97.10
22678;DHT22;26259;50.214;18.620;2023-04-16T13:06:14;16.80;98.60
22678;DHT22;26259;50.214;18.620;2023-04-16T13:08:41;16.70;98.80
22678;DHT22;26259;50.214;18.620;2023-04-16T13:11:07;16.70;97.30
22678;DHT22;26259;50.214;18.620;2023-04-16T13:13:33;16.60;99.90
22678;DHT22;26259;50.214;18.620;2023-04-16T13:15:59;16.70;99.90
22678;DHT22;26259;50.214;18.620;2023-04-16T13:18:25;16.70;98.20
22678;DHT22;26259;50.214;18.620;2023-04-16T13:20:52;16.80;99.20
22678;DHT22;26259;50.214;18.620;2023-04-16T13:23:18;16.90;95.10
22678;DHT22;26259;50.214;18.620;2023-04-16T13:25:44;16.90;96.70
22678;DHT22;26259;50.214;18.620;2023-04-16T13:28:09;16.60;99.70
22678;DHT22;26259;50.214;18.620;2023-04-16T13:30:35;16.50;99.90
22678;DHT22;26259;50.214;18.620;2023-04-16T13:33:01;16.60;97.50
22678;DHT22;26259;50.214;18.620;2023-04-16T13:35:28;16.40;99.20
22678;DHT22;26259;50.214;18.620;2023-04-16T13:37:54;16.10;99.90
22678;DHT22;26259;50.214;18.620;2023-04-16T13:40:20;15.90;99.90
22678;DHT22;26259;50.214;18.620;2023-04-16T13:42:45;15.80;99.90
22678;DHT22;26259;50.214;18.620;2023-04-16T13:45:11;15.80;99.90
22678;DHT22;26259;50.214;18.620;2023-04-16T13:47:40;15.90;99.90
22678;DHT22;26259;50.214;18.620;2023-04-16T13:50:09;15.90;99.90
22678;DHT22;26259;50.214;18.620;2023-04-16T13:52:35;16.00;99.90
22678;DHT22;26259;50.214;18.620;2023-04-16T13:55:01;16.10;99.90
22678;DHT22;26259;50.214;18.620;2023-04-16T13:57:27;16.10;99.90
22678;DHT22;26259;50.214;18.620;2023-04-16T13:59:53;16.10;99.90
22678;DHT22;26259;50.214;18.620;2023-04-16T14:02:19;16.20;99.90
22678;DHT22;26259;50.214;18.620;2023-04-16T14:04:46;16.40;99.90
22678;DHT22;26259;50.214;18.620;2023-04-16T14:07:11;16.60;99.90
22678;DHT22;26259;50.214;18.620;2023-04-16T14:09:37;16.70;99.90
22678;DHT22;26259;50.214;18.620;2023-04-16T14:12:03;16.70;99.90
22678;DHT22;26259;50.214;18.620;2023-04-16T14:14:28;16.60;99.90
22678;DHT22;26259;50.214;18.620;2023-04-16T14:16:54;16.30;99.90
22678;DHT22;26259;50.214;18.620;2023-04-16T14:19:20;16.10;99.90
22678;DHT22;26259;50.214;18.620;2023-04-16T14:21:45;15.80;99.90
22678;DHT22;26259;50.214;18.620;2023-04-16T14:24:11;15.50;99.90
22678;DHT22;26259;50.214;18.620;2023-04-16T14:26:36;15.40;99.90
22678;DHT22;26259;50.214;18.620;2023-04-16T14:29:02;15.40;99.90
22678;DHT22;26259;50.214;18.620;2023-04-16T14:31:27;15.30;99.90
22678;DHT22;26259;50.214;18.620;2023-04-16T14:33:53;15.30;99.90
22678;DHT22;26259;50.214;18.620;2023-04-16T14:36:18;15.40;99.90
22678;DHT22;26259;50.214;18.620;2023-04-16T14:38:46;15.40;99.90
22678;DHT22;26259;50.214;18.620;2023-04-16T14:41:11;15.40;99.90
22678;DHT22;26259;50.214;18.620;2023-04-16T14:43:37;15.50;99.90
22678;DHT22;26259;50.214;18.620;2023-04-16T14:46:04;15.60;99.90
22678;DHT22;26259;50.214;18.620;2023-04-16T14:48:30;15.60;99.90
22678;DHT22;26259;50.214;18.620;2023-04-16T14:50:56;15.80;99.90
22678;DHT22;26259;50.214;18.620;2023-04-16T14:53:22;15.60;99.90
22678;DHT22;26259;50.214;18.620;2023-04-16T14:55:48;15.40;99.90
22678;DHT22;26259;50.214;18.620;2023-04-16T14:58:13;15.30;99.90
22678;DHT22;26259;50.214;18.620;2023-04-16T15:00:39;15.20;99.90
22678;DHT22;26259;50.214;18.620;2023-04-16T15:03:04;15.10;99.90
22678;DHT22;26259;50.214;18.620;2023-04-16T15:05:30;15.10;99.90
22678;DHT22;26259;50.214;18.620;2023-04-16T15:07:56;15.00;99.90
22678;DHT22;26259;50.214;18.620;2023-04-16T15:10:22;14.90;99.90
22678;DHT22;26259;50.214;18.620;2023-04-16T15:12:47;15.00;99.90
22678;DHT22;26259;50.214;18.620;2023-04-16T15:15:13;15.00;99.90
22678;DHT22;26259;50.214;18.620;2023-04-16T15:17:38;15.00;99.90
22678;DHT22;26259;50.214;18.620;2023-04-16T15:20:04;15.00;99.90
22678;DHT22;26259;50.214;18.620;2023-04-16T15:22:33;14.90;99.90
22678;DHT22;26259;50.214;18.620;2023-04-16T15:24:59;15.00;99.90
22678;DHT22;26259;50.214;18.620;2023-04-16T15:27:24;15.00;99.90